Terminal Aerodrome Forecast
Issued by NWS

Current Version | Previous Version | Text Only | Print | Product List | Glossary On
Versions: 1 2 3 4 5 6 7 8 9 10 11 12 13 14 15
000
FTUS43 KMPX 061740
TAFAXN
TAF
KAXN 061740Z 0618/0718 31009KT P6SM SKC
     FM062300 23008KT P6SM BKN050 BKN090
     FM070900 30012KT P6SM BKN020
     FM071300 32015G25KT P6SM SCT020=

USA.gov is the U.S. government's official web portal to all federal, state and local government web resources and services.